createdAt,value
2022-10-05T00:01:43.333Z,99559.19
2022-10-05T00:04:15.452Z,99563.78
2022-10-05T00:06:44.762Z,99561.16
2022-10-05T00:09:18.380Z,99559.19
2022-10-05T00:11:46.249Z,99552.28
2022-10-05T00:14:16.865Z,99558.13
2022-10-05T00:16:45.099Z,99553.13
2022-10-05T00:19:20.932Z,99547.53
2022-10-05T00:21:48.680Z,99541.97
2022-10-05T00:24:20.670Z,99534.09
2022-10-05T00:26:52.814Z,99538.00
2022-10-05T00:29:24.883Z,99534.34
2022-10-05T00:31:52.515Z,99535.00
2022-10-05T00:34:20.154Z,99535.91
2022-10-05T00:36:48.170Z,99528.00
2022-10-05T00:39:15.946Z,99525.59
2022-10-05T00:41:56.545Z,99527.41
2022-10-05T00:44:37.883Z,99515.16
2022-10-05T00:47:25.190Z,99523.81
2022-10-05T00:50:11.016Z,99520.53
2022-10-05T00:52:42.698Z,99517.94
2022-10-05T00:55:16.256Z,99524.81
2022-10-05T00:57:51.842Z,99525.53
2022-10-05T01:00:21.155Z,99522.91
2022-10-05T01:02:54.818Z,99529.13
2022-10-05T01:05:34.356Z,99528.25
2022-10-05T01:08:11.144Z,99525.75
2022-10-05T01:10:45.385Z,99526.91
2022-10-05T01:13:21.359Z,99529.75
2022-10-05T01:15:54.333Z,99528.28
2022-10-05T01:18:26.954Z,99522.66
2022-10-05T01:21:00.316Z,99524.78
2022-10-05T01:24:00.743Z,99528.03
2022-10-05T01:26:59.570Z,99529.38
2022-10-05T01:29:31.457Z,99533.06
2022-10-05T01:32:03.568Z,99529.56
2022-10-05T01:34:36.367Z,99532.78
2022-10-05T01:37:06.480Z,99515.34
2022-10-05T01:39:39.674Z,99534.94
2022-10-05T01:42:13.178Z,99536.31
2022-10-05T01:44:45.787Z,99529.00
2022-10-05T01:47:18.844Z,99522.91
2022-10-05T01:49:49.762Z,99509.88
2022-10-05T01:52:24.886Z,99513.31
2022-10-05T01:55:02.449Z,99508.88
2022-10-05T01:57:38.699Z,99503.13
2022-10-05T02:00:09.346Z,99491.06
2022-10-05T02:02:39.273Z,99486.78
2022-10-05T02:05:11.386Z,99478.25
2022-10-05T02:07:42.527Z,99476.31
2022-10-05T02:10:18.239Z,99475.28
2022-10-05T02:12:47.287Z,99471.59
2022-10-05T02:15:18.646Z,99474.91
2022-10-05T02:17:49.045Z,99476.44
2022-10-05T02:20:22.061Z,99473.13
2022-10-05T02:22:53.033Z,99473.06
2022-10-05T02:25:22.952Z,99470.47
2022-10-05T02:27:54.393Z,99470.09
2022-10-05T02:30:23.353Z,99468.66
2022-10-05T02:32:54.280Z,99464.25
2022-10-05T02:35:23.475Z,99448.41
2022-10-05T02:38:00.722Z,99446.56
2022-10-05T02:40:37.163Z,99448.47
2022-10-05T02:43:09.632Z,99441.25
2022-10-05T02:45:44.246Z,99437.91
2022-10-05T02:48:17.293Z,99443.06
2022-10-05T02:50:49.954Z,99437.41
2022-10-05T02:53:25.493Z,99450.94
2022-10-05T02:56:00.778Z,99450.59
2022-10-05T02:58:30.049Z,99453.00
2022-10-05T03:01:02.228Z,99455.34
2022-10-05T03:03:35.075Z,99455.31
2022-10-05T03:06:04.821Z,99459.66
2022-10-05T03:08:36.906Z,99454.16
2022-10-05T03:11:09.299Z,99455.84
2022-10-05T03:13:43.789Z,99463.72
2022-10-05T03:16:25.087Z,99464.06
2022-10-05T03:19:02.790Z,99466.47
2022-10-05T03:21:43.754Z,99473.56
2022-10-05T03:24:22.995Z,99478.50
2022-10-05T03:26:56.230Z,99478.34
2022-10-05T03:29:30.827Z,99486.66
2022-10-05T03:32:02.118Z,99490.66
2022-10-05T03:34:36.078Z,99495.13
2022-10-05T03:37:06.178Z,99489.03
2022-10-05T03:39:38.011Z,99485.50
2022-10-05T03:42:09.636Z,99494.09
2022-10-05T03:44:43.818Z,99484.47
2022-10-05T03:47:23.389Z,99486.94
2022-10-05T03:50:07.734Z,99480.75
2022-10-05T03:52:38.155Z,99484.19
2022-10-05T03:55:10.454Z,99486.88
2022-10-05T03:57:39.732Z,99483.41
2022-10-05T04:00:13.654Z,99479.97
2022-10-05T04:02:45.080Z,99488.44
2022-10-05T04:05:16.154Z,99482.25
2022-10-05T04:07:47.397Z,99479.44
2022-10-05T04:10:18.919Z,99480.03
2022-10-05T04:12:50.358Z,99477.16
2022-10-05T04:15:23.675Z,99481.56
2022-10-05T04:17:57.101Z,99477.97
2022-10-05T04:20:27.251Z,99477.72
2022-10-05T04:22:59.983Z,99488.00
2022-10-05T04:25:30.277Z,99476.53
2022-10-05T04:28:03.217Z,99471.91
2022-10-05T04:30:32.149Z,99482.22
2022-10-05T04:33:01.730Z,99486.56
2022-10-05T04:35:39.884Z,99484.75
2022-10-05T04:38:16.804Z,99486.38
2022-10-05T04:40:53.644Z,99489.72
2022-10-05T04:43:27.835Z,99488.81
2022-10-05T04:46:08.268Z,99492.25
2022-10-05T04:48:47.839Z,99486.88
2022-10-05T04:51:23.752Z,99501.59
2022-10-05T04:53:55.263Z,99500.53
2022-10-05T04:56:31.094Z,99503.88
2022-10-05T04:59:13.795Z,99506.50
2022-10-05T05:01:56.453Z,99506.25
2022-10-05T05:04:51.629Z,99500.03
2022-10-05T05:07:29.882Z,99500.84
2022-10-05T05:10:14.560Z,99507.78
2022-10-05T05:12:50.384Z,99504.94
2022-10-05T05:15:24.930Z,99498.72
2022-10-05T05:18:06.082Z,99506.63
2022-10-05T05:20:42.283Z,99502.25
2022-10-05T05:23:15.490Z,99492.66
2022-10-05T05:25:49.251Z,99499.63
2022-10-05T05:28:21.787Z,99499.63
2022-10-05T05:30:53.889Z,99502.16
2022-10-05T05:33:24.090Z,99504.63
2022-10-05T05:36:27.115Z,99503.72
2022-10-05T05:39:06.162Z,99504.69
2022-10-05T05:41:39.017Z,99502.00
2022-10-05T05:44:15.291Z,99508.06
2022-10-05T05:47:02.917Z,99508.72
2022-10-05T05:49:39.198Z,99506.09
2022-10-05T05:52:13.444Z,99509.44
2022-10-05T05:54:45.724Z,99511.16
2022-10-05T05:57:16.615Z,99512.91
2022-10-05T05:59:55.798Z,99507.50
2022-10-05T06:02:27.586Z,99512.66
2022-10-05T06:04:58.865Z,99519.59
2022-10-05T06:07:30.708Z,99516.94
2022-10-05T06:10:05.692Z,99524.69
2022-10-05T06:12:35.781Z,99521.91
2022-10-05T06:15:12.419Z,99515.59
2022-10-05T06:17:45.056Z,99514.69
2022-10-05T06:20:18.570Z,99524.25
2022-10-05T06:22:46.730Z,99524.16
2022-10-05T06:25:31.059Z,99530.13
2022-10-05T06:28:07.357Z,99518.56
2022-10-05T06:30:45.678Z,99525.31
2022-10-05T06:33:22.849Z,99520.41
2022-10-05T06:36:01.666Z,99524.13
2022-10-05T06:38:39.922Z,99519.94
2022-10-05T06:41:16.648Z,99528.69
2022-10-05T06:43:57.443Z,99519.03
2022-10-05T06:46:27.529Z,99513.59
2022-10-05T06:49:26.663Z,99509.19
2022-10-05T06:51:57.345Z,99522.28
2022-10-05T06:54:40.179Z,99520.09
2022-10-05T06:57:14.120Z,99519.91
2022-10-05T06:59:49.365Z,99524.97
2022-10-05T07:02:22.991Z,99523.56
2022-10-05T07:05:16.838Z,99519.47
2022-10-05T07:07:51.504Z,99516.81
2022-10-05T07:10:25.945Z,99519.69
2022-10-05T07:13:08.998Z,99522.28
2022-10-05T07:15:42.495Z,99516.56
2022-10-05T07:18:57.622Z,99513.53
2022-10-05T07:21:32.744Z,99523.16
2022-10-05T07:24:03.991Z,99517.22
2022-10-05T07:26:35.173Z,99521.78
2022-10-05T07:29:24.226Z,99527.28
2022-10-05T07:31:59.542Z,99526.94
2022-10-05T07:34:35.288Z,99532.00
2022-10-05T07:37:22.228Z,99529.50
2022-10-05T07:40:00.951Z,99530.06
2022-10-05T07:42:48.818Z,99529.75
2022-10-05T07:45:27.338Z,99534.34
2022-10-05T07:47:56.674Z,99528.28
2022-10-05T07:50:28.197Z,99532.66
2022-10-05T07:52:58.545Z,99535.88
2022-10-05T07:55:27.599Z,99527.59
2022-10-05T07:58:06.370Z,99534.66
2022-10-05T08:01:01.559Z,99536.94
2022-10-05T08:03:38.233Z,99536.38
2022-10-05T08:06:07.418Z,99539.81
2022-10-05T08:08:40.997Z,99540.09
2022-10-05T08:11:12.542Z,99533.38
2022-10-05T08:13:45.475Z,99536.75
2022-10-05T08:16:14.607Z,99530.06
2022-10-05T08:18:51.448Z,99527.41
2022-10-05T08:21:23.715Z,99520.94
2022-10-05T08:23:56.485Z,99516.66
2022-10-05T08:26:29.216Z,99521.06
2022-10-05T08:29:06.693Z,99527.81
2022-10-05T08:31:39.309Z,99522.13
2022-10-05T08:34:21.941Z,99527.09
2022-10-05T08:36:58.675Z,99521.44
2022-10-05T08:39:30.733Z,99512.47
2022-10-05T08:42:46.938Z,99515.34
2022-10-05T08:45:45.711Z,99513.06
2022-10-05T08:48:41.359Z,99511.75
2022-10-05T08:51:32.892Z,99514.50
2022-10-05T08:54:25.485Z,99521.00
2022-10-05T08:57:03.862Z,99520.59
2022-10-05T09:00:03.880Z,99519.94
2022-10-05T09:02:44.003Z,99516.75
2022-10-05T09:05:27.331Z,99510.50
2022-10-05T09:08:34.867Z,99506.25
2022-10-05T09:11:05.141Z,99502.25
2022-10-05T09:14:04.215Z,99507.56
2022-10-05T09:17:17.625Z,99506.97
2022-10-05T09:20:15.015Z,99513.81
2022-10-05T09:23:03.365Z,99512.59
2022-10-05T09:25:42.706Z,99523.47
2022-10-05T09:28:25.363Z,99518.25
2022-10-05T09:30:58.867Z,99514.06
2022-10-05T09:34:08.714Z,99515.34
2022-10-05T09:37:00.532Z,99513.47
2022-10-05T09:40:01.317Z,99498.38
2022-10-05T09:42:58.887Z,99503.25
2022-10-05T09:45:57.735Z,99494.13
2022-10-05T09:48:56.073Z,99495.09
2022-10-05T09:51:45.244Z,99502.31
2022-10-05T09:54:33.849Z,99490.34
2022-10-05T09:57:28.200Z,99484.84
2022-10-05T10:00:17.597Z,99486.25
2022-10-05T10:03:14.127Z,99476.09
2022-10-05T10:05:59.948Z,99479.72
2022-10-05T10:08:37.214Z,99478.09
2022-10-05T10:11:11.665Z,99479.22
2022-10-05T10:14:14.311Z,99480.66
2022-10-05T10:16:53.628Z,99468.78
2022-10-05T10:19:32.026Z,99479.91
2022-10-05T10:22:11.404Z,99486.25
2022-10-05T10:24:57.698Z,99477.13
2022-10-05T10:27:37.546Z,99480.28
2022-10-05T10:30:19.538Z,99472.47
2022-10-05T10:33:13.345Z,99477.22
2022-10-05T10:35:43.241Z,99474.84
2022-10-05T10:38:31.508Z,99478.28
2022-10-05T10:41:17.746Z,99469.63
2022-10-05T10:44:13.304Z,99476.09
2022-10-05T10:46:48.204Z,99472.56
2022-10-05T10:49:29.719Z,99468.81
2022-10-05T10:52:17.546Z,99468.25
2022-10-05T10:55:01.799Z,99459.28
2022-10-05T10:57:39.956Z,99445.28
2022-10-05T11:00:25.026Z,99452.81
2022-10-05T11:03:08.951Z,99447.00
2022-10-05T11:05:51.868Z,99461.72
2022-10-05T11:08:43.877Z,99459.03
2022-10-05T11:11:33.000Z,99462.03
2022-10-05T11:14:34.744Z,99457.66
2022-10-05T11:17:29.252Z,99453.59
2022-10-05T11:20:19.106Z,99443.75
2022-10-05T11:22:59.266Z,99441.34
2022-10-05T11:25:50.179Z,99432.66
2022-10-05T11:28:39.236Z,99436.38
2022-10-05T11:31:26.660Z,99431.78
2022-10-05T11:34:16.703Z,99440.94
2022-10-05T11:37:10.815Z,99436.56
2022-10-05T11:39:44.729Z,99423.47
2022-10-05T11:42:51.328Z,99430.31
2022-10-05T11:45:25.033Z,99432.81
2022-10-05T11:48:31.397Z,99439.84
2022-10-05T11:51:16.743Z,99434.78
2022-10-05T11:53:51.278Z,99430.72
2022-10-05T11:56:24.010Z,99433.44
2022-10-05T11:58:55.111Z,99423.03
2022-10-05T12:01:28.404Z,99431.25
2022-10-05T12:04:00.891Z,99421.84
2022-10-05T12:06:55.590Z,99425.03
2022-10-05T12:09:37.295Z,99415.94
2022-10-05T12:12:11.577Z,99412.34
2022-10-05T12:14:46.760Z,99416.28
2022-10-05T12:17:19.354Z,99416.19
2022-10-05T12:19:49.103Z,99407.84
2022-10-05T12:22:21.476Z,99400.69
2022-10-05T12:25:01.842Z,99404.72
2022-10-05T12:27:34.386Z,99395.59
2022-10-05T12:30:06.313Z,99406.16
2022-10-05T12:32:36.920Z,99405.06
2022-10-05T12:35:13.102Z,99397.56
2022-10-05T12:37:46.360Z,99376.75
2022-10-05T12:40:26.292Z,99394.06
2022-10-05T12:43:01.970Z,99391.53
2022-10-05T12:45:38.055Z,99387.69
2022-10-05T12:48:18.804Z,99382.09
2022-10-05T12:50:50.323Z,99379.00
2022-10-05T12:53:29.280Z,99386.13
2022-10-05T12:56:04.318Z,99381.25
2022-10-05T12:58:39.448Z,99369.81
2022-10-05T13:01:10.117Z,99367.56
2022-10-05T13:03:39.096Z,99365.00
2022-10-05T13:06:13.450Z,99367.41
2022-10-05T13:08:46.876Z,99369.47
2022-10-05T13:11:19.786Z,99368.44
2022-10-05T13:14:02.655Z,99367.22
2022-10-05T13:16:37.926Z,99361.16
2022-10-05T13:19:23.209Z,99347.63
2022-10-05T13:22:04.530Z,99358.47
2022-10-05T13:24:37.562Z,99359.22
2022-10-05T13:27:14.070Z,99364.78
2022-10-05T13:29:45.713Z,99352.78
2022-10-05T13:32:17.739Z,99350.41
2022-10-05T13:34:52.436Z,99363.53
2022-10-05T13:37:26.521Z,99356.13
2022-10-05T13:39:59.566Z,99351.41
2022-10-05T13:42:35.076Z,99352.59
2022-10-05T13:45:14.047Z,99347.03
2022-10-05T13:47:51.532Z,99343.16
2022-10-05T13:50:22.137Z,99348.25
2022-10-05T13:52:55.545Z,99354.09
2022-10-05T13:55:34.769Z,99348.25
2022-10-05T13:58:07.112Z,99352.53
2022-10-05T14:00:44.806Z,99350.22
2022-10-05T14:03:27.372Z,99346.06
2022-10-05T14:05:56.959Z,99341.78
2022-10-05T14:08:28.846Z,99337.09
2022-10-05T14:10:56.897Z,99333.56
2022-10-05T14:13:28.005Z,99334.88
2022-10-05T14:16:19.556Z,99325.16
2022-10-05T14:18:59.033Z,99321.88
2022-10-05T14:21:29.842Z,99319.81
2022-10-05T14:23:58.737Z,99319.94
2022-10-05T14:26:33.819Z,99311.50
2022-10-05T14:29:06.877Z,99312.25
2022-10-05T14:31:36.596Z,99312.47
2022-10-05T14:34:27.223Z,99304.69
2022-10-05T14:36:59.505Z,99305.31
2022-10-05T14:39:28.304Z,99295.84
2022-10-05T14:41:55.900Z,99304.47
2022-10-05T14:47:16.640Z,99285.63
2022-10-05T14:50:10.456Z,99277.84
2022-10-05T14:52:41.067Z,99276.63
2022-10-05T14:55:39.041Z,99269.34
2022-10-05T14:58:19.466Z,99266.66
2022-10-05T15:00:56.880Z,99262.16
2022-10-05T15:03:36.258Z,99255.47
2022-10-05T15:06:04.486Z,99251.09
2022-10-05T15:08:42.399Z,99246.38
2022-10-05T15:11:13.875Z,99237.63
2022-10-05T15:13:43.477Z,99238.34
2022-10-05T15:16:18.854Z,99242.47
2022-10-05T15:18:50.845Z,99236.41
2022-10-05T15:21:42.210Z,99237.25
2022-10-05T15:24:13.165Z,99227.41
2022-10-05T15:26:47.739Z,99233.13
2022-10-05T15:29:27.501Z,99227.03
2022-10-05T15:32:03.034Z,99232.16
2022-10-05T15:34:37.745Z,99226.69
2022-10-05T15:37:10.982Z,99230.94
2022-10-05T15:39:43.291Z,99235.06
2022-10-05T15:42:14.585Z,99230.59
2022-10-05T15:44:52.070Z,99235.81
2022-10-05T15:47:24.422Z,99239.47
2022-10-05T15:49:59.481Z,99232.53
2022-10-05T15:52:30.465Z,99238.59
2022-10-05T15:55:40.692Z,99236.53
2022-10-05T15:58:18.381Z,99232.03
2022-10-05T16:00:48.551Z,99238.50
2022-10-05T16:03:28.534Z,99242.72
2022-10-05T16:06:19.694Z,99242.13
2022-10-05T16:09:11.439Z,99242.56
2022-10-05T16:11:52.951Z,99242.81
2022-10-05T16:14:30.141Z,99236.44
2022-10-05T16:17:06.193Z,99235.81
2022-10-05T16:19:40.886Z,99243.47
2022-10-05T16:22:20.537Z,99244.53
2022-10-05T16:25:00.723Z,99248.97
2022-10-05T16:27:39.061Z,99243.88
2022-10-05T16:30:09.760Z,99250.13
2022-10-05T16:32:40.060Z,99257.53
2022-10-05T16:35:16.674Z,99242.34
2022-10-05T16:37:49.733Z,99258.31
2022-10-05T16:40:22.657Z,99259.09
2022-10-05T16:42:57.175Z,99264.34
2022-10-05T16:45:30.796Z,99264.56
2022-10-05T16:48:04.292Z,99263.38
2022-10-05T16:50:38.154Z,99271.16
2022-10-05T16:53:13.532Z,99255.78
2022-10-05T16:55:43.479Z,99270.72
2022-10-05T16:58:15.775Z,99281.16
2022-10-05T17:00:53.116Z,99268.72
2022-10-05T17:03:30.804Z,99285.88
2022-10-05T17:06:13.188Z,99285.03
2022-10-05T17:09:12.225Z,99293.59
2022-10-05T17:11:54.050Z,99301.28
2022-10-05T17:14:29.046Z,99307.44
2022-10-05T17:17:30.622Z,99308.00
2022-10-05T17:20:13.887Z,99313.75
2022-10-05T17:22:51.135Z,99311.81
2022-10-05T17:25:24.338Z,99321.53
2022-10-05T17:27:53.606Z,99330.47
2022-10-05T17:30:39.120Z,99327.69
2022-10-05T17:33:20.377Z,99327.34
2022-10-05T17:35:53.710Z,99337.03
2022-10-05T17:38:24.422Z,99328.59
2022-10-05T17:41:15.854Z,99332.41
2022-10-05T17:44:20.557Z,99324.69
2022-10-05T17:46:49.547Z,99335.84
2022-10-05T17:49:41.712Z,99338.94
2022-10-05T17:52:39.939Z,99354.66
2022-10-05T17:55:38.420Z,99353.34
2022-10-05T17:59:02.871Z,99353.56
2022-10-05T18:01:34.391Z,99353.41
2022-10-05T18:04:30.344Z,99365.56
2022-10-05T18:07:03.026Z,99361.84
2022-10-05T18:09:39.509Z,99357.22
2022-10-05T18:12:42.001Z,99371.94
2022-10-05T18:15:44.880Z,99383.91
2022-10-05T18:18:36.496Z,99375.16
2022-10-05T18:21:20.360Z,99385.44
2022-10-05T18:23:50.487Z,99385.03
2022-10-05T18:26:28.846Z,99390.47
2022-10-05T18:29:13.968Z,99388.47
2022-10-05T18:31:49.960Z,99406.63
2022-10-05T18:34:27.138Z,99408.34
2022-10-05T18:37:13.038Z,99407.00
2022-10-05T18:39:55.455Z,99409.41
2022-10-05T18:42:28.296Z,99411.88
2022-10-05T18:44:59.007Z,99414.72
2022-10-05T18:47:33.070Z,99406.28
2022-10-05T18:50:09.297Z,99413.00
2022-10-05T18:52:45.722Z,99424.03
2022-10-05T18:55:18.283Z,99415.09
2022-10-05T18:58:01.596Z,99423.38
2022-10-05T19:00:41.455Z,99436.56
2022-10-05T19:03:15.910Z,99434.28
2022-10-05T19:05:50.017Z,99430.78
2022-10-05T19:08:24.852Z,99441.69
2022-10-05T19:10:56.280Z,99442.09
2022-10-05T19:13:34.353Z,99446.72
2022-10-05T19:16:26.572Z,99454.63
2022-10-05T19:19:04.881Z,99449.94
2022-10-05T19:21:40.238Z,99459.03
2022-10-05T19:24:32.428Z,99468.72
2022-10-05T19:27:08.334Z,99468.13
2022-10-05T19:29:46.157Z,99471.34
2022-10-05T19:32:19.532Z,99477.72
2022-10-05T19:34:57.418Z,99481.72
2022-10-05T19:37:32.056Z,99479.22
2022-10-05T19:40:05.869Z,99481.31
2022-10-05T19:42:48.402Z,99492.13
2022-10-05T19:45:19.997Z,99496.00
2022-10-05T19:47:56.213Z,99487.94
2022-10-05T19:50:28.781Z,99493.44
2022-10-05T19:53:08.140Z,99509.78
2022-10-05T19:55:37.917Z,99499.50
2022-10-05T19:58:18.671Z,99506.00
2022-10-05T20:00:53.918Z,99510.28
2022-10-05T20:03:26.431Z,99506.16
2022-10-05T20:05:55.115Z,99517.16
2022-10-05T20:08:26.871Z,99526.75
2022-10-05T20:11:11.111Z,99522.47
2022-10-05T20:13:41.702Z,99536.94
2022-10-05T20:16:38.763Z,99531.91
2022-10-05T20:19:24.490Z,99542.88
2022-10-05T20:21:53.300Z,99560.13
2022-10-05T20:24:25.526Z,99553.09
2022-10-05T20:27:04.997Z,99564.66
2022-10-05T20:29:36.313Z,99575.47
2022-10-05T20:32:08.083Z,99575.06
2022-10-05T20:34:36.952Z,99579.78
2022-10-05T20:37:04.595Z,99588.50
2022-10-05T20:39:33.568Z,99589.28
2022-10-05T20:42:03.836Z,99595.78
2022-10-05T20:44:31.703Z,99590.81
2022-10-05T20:47:01.220Z,99595.47
2022-10-05T20:49:30.918Z,99600.84
2022-10-05T20:51:58.577Z,99598.53
2022-10-05T20:54:27.191Z,99596.81
2022-10-05T20:56:56.398Z,99587.22
2022-10-05T20:59:25.916Z,99597.06
2022-10-05T21:01:53.900Z,99600.00
2022-10-05T21:04:23.295Z,99601.19
2022-10-05T21:06:51.837Z,99611.53
2022-10-05T21:09:21.518Z,99612.50
2022-10-05T21:11:52.855Z,99611.81
2022-10-05T21:14:22.873Z,99607.69
2022-10-05T21:16:50.759Z,99605.09
2022-10-05T21:19:22.099Z,99611.69
2022-10-05T21:21:50.711Z,99624.28
2022-10-05T21:24:20.645Z,99623.50
2022-10-05T21:26:48.392Z,99615.63
2022-10-05T21:29:16.635Z,99602.72
2022-10-05T21:31:46.047Z,99620.22
2022-10-05T21:34:13.937Z,99624.81
2022-10-05T21:36:41.600Z,99620.34
2022-10-05T21:39:09.831Z,99623.41
2022-10-05T21:41:40.638Z,99624.34
2022-10-05T21:44:08.349Z,99631.00
2022-10-05T21:46:36.973Z,99627.78
2022-10-05T21:49:06.853Z,99640.19
2022-10-05T21:51:35.465Z,99633.19
2022-10-05T21:54:04.722Z,99641.22
2022-10-05T21:56:34.704Z,99642.94
2022-10-05T21:59:03.053Z,99641.13
2022-10-05T22:01:31.181Z,99637.53
2022-10-05T22:04:01.462Z,99642.31
2022-10-05T22:06:30.915Z,99654.03
2022-10-05T22:08:59.479Z,99644.13
2022-10-05T22:11:27.888Z,99649.34
2022-10-05T22:14:01.975Z,99650.34
2022-10-05T22:16:32.653Z,99654.19
2022-10-05T22:19:03.670Z,99656.13
2022-10-05T22:21:34.256Z,99664.56
2022-10-05T22:24:02.653Z,99663.63
2022-10-05T22:26:30.419Z,99662.16
2022-10-05T22:28:58.575Z,99665.28
2022-10-05T22:31:26.262Z,99663.63
2022-10-05T22:33:53.842Z,99662.22
2022-10-05T22:36:21.823Z,99665.97
2022-10-05T22:38:50.764Z,99669.56
2022-10-05T22:41:18.695Z,99672.59
2022-10-05T22:43:50.029Z,99673.66
2022-10-05T22:46:17.897Z,99678.19
2022-10-05T22:48:45.587Z,99678.91
2022-10-05T22:51:13.125Z,99677.34
2022-10-05T22:53:40.656Z,99680.69
2022-10-05T22:56:11.490Z,99682.47
2022-10-05T22:58:39.647Z,99681.16
2022-10-05T23:01:08.937Z,99682.31
2022-10-05T23:03:37.219Z,99676.50
2022-10-05T23:06:06.559Z,99675.81
2022-10-05T23:08:35.119Z,99672.84
2022-10-05T23:11:03.508Z,99688.59
2022-10-05T23:13:32.887Z,99692.19
2022-10-05T23:16:06.737Z,99691.19
2022-10-05T23:18:34.808Z,99695.63
2022-10-05T23:21:02.997Z,99691.47
2022-10-05T23:23:30.589Z,99700.28
2022-10-05T23:26:00.466Z,99699.00
2022-10-05T23:28:28.789Z,99696.50
2022-10-05T23:31:00.880Z,99697.06
2022-10-05T23:33:28.709Z,99700.22
2022-10-05T23:36:00.204Z,99706.38
2022-10-05T23:38:28.336Z,99704.81
2022-10-05T23:40:58.493Z,99697.63
2022-10-05T23:43:26.302Z,99689.91
2022-10-05T23:45:54.246Z,99696.22
2022-10-05T23:48:24.652Z,99694.00
2022-10-05T23:50:53.055Z,99702.25
2022-10-05T23:53:21.004Z,99707.53
2022-10-05T23:55:50.719Z,99714.06
2022-10-05T23:58:18.697Z,99713.25
